Station Historical Data
Daily Summary for January 18, 2018 Units:  Both    English   Metric
« Previous Day
Next Day »
Daily Weekly Monthly Yearly Custom
  High: Low: Average:
Temperature: 26.3 °F /  -3.2 °C 13.4 °F /  -10.3 °C 19.3 °F /  -7.1 °C
Dew Point: 17.1 °F /  -8.3 °C 7.2 °F /  -13.8 °C 13.6 °F /  -10.2 °C
Humidity: 85% 67% 79%
Wind Speed: 20.0mph /  32.2km/h - 9.4mph /  15.1km/h
Wind Gust: 32.0mph /  51.5km/h - -
Wind- - SW
Pressure: 30.17 in /  1021.6 hPa 29.99 in /  1015.5 hPa -
Precipitation: 0.00 in /  0 mm    
Historical Graphs
 
 
Tabular Data for January 18, 2018
Time Temperature Dew Point Pressure Wind Wind Speed Wind Gust Humidity Rainfall Rate (Hourly)
00:04 15.5 °F /  -9.2 °C 9.9 °F /  -12.3 °C 30.17in /  1021.6hPa SW 10.0mph /  16.1km/h 20.0mph /  32.2km/h 78% 0.00in /  0mm
00:09 15.4 °F /  -9.2 °C 9.8 °F /  -12.3 °C 30.17in /  1021.6hPa SW 10.0mph /  16.1km/h 20.0mph /  32.2km/h 78% 0.00in /  0mm
00:14 15.5 °F /  -9.2 °C 9.9 °F /  -12.3 °C 30.17in /  1021.6hPa WSW 10.0mph /  16.1km/h 19.0mph /  30.6km/h 78% 0.00in /  0mm
00:19 15.5 °F /  -9.2 °C 9.9 °F /  -12.3 °C 30.17in /  1021.6hPa SSW 7.0mph /  11.3km/h 16.0mph /  25.7km/h 78% 0.00in /  0mm
00:24 15.4 °F /  -9.2 °C 9.5 °F /  -12.5 °C 30.17in /  1021.6hPa ESE 10.0mph /  16.1km/h 17.0mph /  27.4km/h 77% 0.00in /  0mm
00:29 15.2 °F /  -9.3 °C 9.3 °F /  -12.6 °C 30.16in /  1021.2hPa SW 4.0mph /  6.4km/h 19.0mph /  30.6km/h 77% 0.00in /  0mm
00:34 15.2 °F /  -9.3 °C 9.3 °F /  -12.6 °C 30.16in /  1021.2hPa SSE 6.0mph /  9.7km/h 20.0mph /  32.2km/h 77% 0.00in /  0mm
00:39 15.1 °F /  -9.4 °C 9.2 °F /  -12.7 °C 30.16in /  1021.2hPa SSW 7.0mph /  11.3km/h 20.0mph /  32.2km/h 77% 0.00in /  0mm
00:44 15.1 °F /  -9.4 °C 9.2 °F /  -12.7 °C 30.16in /  1021.2hPa SSW 7.0mph /  11.3km/h 17.0mph /  27.4km/h 77% 0.00in /  0mm
00:49 15.0 °F /  -9.4 °C 8.8 °F /  -12.9 °C 30.15in /  1020.9hPa SSW 7.0mph /  11.3km/h 19.0mph /  30.6km/h 76% 0.00in /  0mm
00:54 14.7 °F /  -9.6 °C 8.5 °F /  -13.1 °C 30.15in /  1020.9hPa SSW 7.0mph /  11.3km/h 19.0mph /  30.6km/h 76% 0.00in /  0mm
00:59 14.6 °F /  -9.7 °C 8.4 °F /  -13.1 °C 30.15in /  1020.9hPa SSW 7.0mph /  11.3km/h 16.0mph /  25.7km/h 76% 0.00in /  0mm
01:04 14.5 °F /  -9.7 °C 8.3 °F /  -13.2 °C 30.15in /  1020.9hPa SW 7.0mph /  11.3km/h 15.0mph /  24.1km/h 76% 0.00in /  0mm
01:09 14.4 °F /  -9.8 °C 8.2 °F /  -13.2 °C 30.15in /  1020.9hPa SSW 7.0mph /  11.3km/h 15.0mph /  24.1km/h 76% 0.00in /  0mm
01:14 14.2 °F /  -9.9 °C 8.0 °F /  -13.3 °C 30.14in /  1020.5hPa SW 4.0mph /  6.4km/h 13.0mph /  20.9km/h 76% 0.00in /  0mm
01:19 14.1 °F /  -9.9 °C 7.9 °F /  -13.4 °C 30.14in /  1020.5hPa SW 5.0mph /  8km/h 14.0mph /  22.5km/h 76% 0.00in /  0mm
01:24 14.0 °F /  -10 °C 7.8 °F /  -13.4 °C 30.14in /  1020.5hPa SSW 8.0mph /  12.9km/h 12.0mph /  19.3km/h 76% 0.00in /  0mm
01:29 13.9 °F /  -10.1 °C 7.7 °F /  -13.5 °C 30.14in /  1020.5hPa SW 3.0mph /  4.8km/h 14.0mph /  22.5km/h 76% 0.00in /  0mm
01:34 13.8 °F /  -10.1 °C 7.6 °F /  -13.6 °C 30.14in /  1020.5hPa SW 9.0mph /  14.5km/h 15.0mph /  24.1km/h 76% 0.00in /  0mm
01:39 13.8 °F /  -10.1 °C 7.6 °F /  -13.6 °C 30.14in /  1020.5hPa South 5.0mph /  8km/h 14.0mph /  22.5km/h 76% 0.00in /  0mm
01:44 13.6 °F /  -10.2 °C 7.4 °F /  -13.7 °C 30.14in /  1020.5hPa SW 7.0mph /  11.3km/h 16.0mph /  25.7km/h 76% 0.00in /  0mm
01:49 13.5 °F /  -10.3 °C 7.3 °F /  -13.7 °C 30.14in /  1020.5hPa SW 7.0mph /  11.3km/h 16.0mph /  25.7km/h 76% 0.00in /  0mm
01:54 13.5 °F /  -10.3 °C 7.3 °F /  -13.7 °C 30.14in /  1020.5hPa SW 6.0mph /  9.7km/h 15.0mph /  24.1km/h 76% 0.00in /  0mm
01:59 13.4 °F /  -10.3 °C 7.2 °F /  -13.8 °C 30.14in /  1020.5hPa SW 6.0mph /  9.7km/h 13.0mph /  20.9km/h 76% 0.00in /  0mm
02:04 13.5 °F /  -10.3 °C 7.3 °F /  -13.7 °C 30.14in /  1020.5hPa SW 7.0mph /  11.3km/h 16.0mph /  25.7km/h 76% 0.00in /  0mm
02:09 13.9 °F /  -10.1 °C 7.7 °F /  -13.5 °C 30.14in /  1020.5hPa South 8.0mph /  12.9km/h 15.0mph /  24.1km/h 76% 0.00in /  0mm
02:14 14.2 °F /  -9.9 °C 7.7 °F /  -13.5 °C 30.13in /  1020.2hPa SW 8.0mph /  12.9km/h 17.0mph /  27.4km/h 75% 0.00in /  0mm
02:19 14.4 °F /  -9.8 °C 7.6 °F /  -13.6 °C 30.13in /  1020.2hPa SW 14.0mph /  22.5km/h 15.0mph /  24.1km/h 74% 0.00in /  0mm
02:24 14.6 °F /  -9.7 °C 7.8 °F /  -13.4 °C 30.13in /  1020.2hPa South 7.0mph /  11.3km/h 14.0mph /  22.5km/h 74% 0.00in /  0mm
02:29 14.7 °F /  -9.6 °C 7.6 °F /  -13.6 °C 30.13in /  1020.2hPa SW 9.0mph /  14.5km/h 15.0mph /  24.1km/h 73% 0.00in /  0mm
02:34 14.8 °F /  -9.6 °C 7.4 °F /  -13.7 °C 30.13in /  1020.2hPa SW 14.0mph /  22.5km/h 17.0mph /  27.4km/h 72% 0.00in /  0mm
02:39 15.0 °F /  -9.4 °C 7.6 °F /  -13.6 °C 30.13in /  1020.2hPa WSW 9.0mph /  14.5km/h 15.0mph /  24.1km/h 72% 0.00in /  0mm
02:44 15.1 °F /  -9.4 °C 7.7 °F /  -13.5 °C 30.13in /  1020.2hPa WSW 6.0mph /  9.7km/h 18.0mph /  29km/h 72% 0.00in /  0mm
02:49 15.1 °F /  -9.4 °C 7.7 °F /  -13.5 °C 30.14in /  1020.5hPa SW 7.0mph /  11.3km/h 14.0mph /  22.5km/h 72% 0.00in /  0mm
02:54 15.2 °F /  -9.3 °C 7.5 °F /  -13.6 °C 30.14in /  1020.5hPa SW 9.0mph /  14.5km/h 18.0mph /  29km/h 71% 0.00in /  0mm
02:59 15.2 °F /  -9.3 °C 7.5 °F /  -13.6 °C 30.14in /  1020.5hPa SW 8.0mph /  12.9km/h 18.0mph /  29km/h 71% 0.00in /  0mm
03:04 15.3 °F /  -9.3 °C 7.6 °F /  -13.6 °C 30.13in /  1020.2hPa SW 8.0mph /  12.9km/h 18.0mph /  29km/h 71% 0.00in /  0mm
03:09 15.5 °F /  -9.2 °C 7.5 °F /  -13.6 °C 30.14in /  1020.5hPa SW 10.0mph /  16.1km/h 18.0mph /  29km/h 70% 0.00in /  0mm
03:14 15.7 °F /  -9.1 °C 7.6 °F /  -13.6 °C 30.14in /  1020.5hPa SW 9.0mph /  14.5km/h 17.0mph /  27.4km/h 70% 0.00in /  0mm
03:19 15.7 °F /  -9.1 °C 7.6 °F /  -13.6 °C 30.14in /  1020.5hPa SW 9.0mph /  14.5km/h 17.0mph /  27.4km/h 70% 0.00in /  0mm
03:24 15.8 °F /  -9 °C 7.7 °F /  -13.5 °C 30.14in /  1020.5hPa WSW 10.0mph /  16.1km/h 19.0mph /  30.6km/h 70% 0.00in /  0mm
03:29 15.9 °F /  -8.9 °C 7.8 °F /  -13.4 °C 30.14in /  1020.5hPa WSW 10.0mph /  16.1km/h 17.0mph /  27.4km/h 70% 0.00in /  0mm
03:34 15.9 °F /  -8.9 °C 7.8 °F /  -13.4 °C 30.13in /  1020.2hPa SW 17.0mph /  27.4km/h 17.0mph /  27.4km/h 70% 0.00in /  0mm
03:39 15.9 °F /  -8.9 °C 8.2 °F /  -13.2 °C 30.13in /  1020.2hPa WSW 13.0mph /  20.9km/h 20.0mph /  32.2km/h 71% 0.00in /  0mm
03:44 15.9 °F /  -8.9 °C 8.2 °F /  -13.2 °C 30.13in /  1020.2hPa SW 10.0mph /  16.1km/h 20.0mph /  32.2km/h 71% 0.00in /  0mm
03:49 15.8 °F /  -9 °C 8.1 °F /  -13.3 °C 30.13in /  1020.2hPa SW 11.0mph /  17.7km/h 20.0mph /  32.2km/h 71% 0.00in /  0mm
03:54 15.9 °F /  -8.9 °C 8.5 °F /  -13.1 °C 30.13in /  1020.2hPa SW 9.0mph /  14.5km/h 20.0mph /  32.2km/h 72% 0.00in /  0mm
03:59 16.1 °F /  -8.8 °C 8.7 °F /  -12.9 °C 30.13in /  1020.2hPa WSW 9.0mph /  14.5km/h 18.0mph /  29km/h 72% 0.00in /  0mm
04:04 16.2 °F /  -8.8 °C 9.1 °F /  -12.7 °C 30.13in /  1020.2hPa WSW 6.0mph /  9.7km/h 19.0mph /  30.6km/h 73% 0.00in /  0mm
04:14 16.5 °F /  -8.6 °C 10.0 °F /  -12.2 °C 30.12in /  1019.9hPa WSW 9.0mph /  14.5km/h 18.0mph /  29km/h 75% 0.00in /  0mm
04:19 16.9 °F /  -8.4 °C 10.6 °F /  -11.9 °C 30.12in /  1019.9hPa WSW 11.0mph /  17.7km/h 19.0mph /  30.6km/h 76% 0.00in /  0mm
04:24 17.1 °F /  -8.3 °C 10.8 °F /  -11.8 °C 30.12in /  1019.9hPa WSW 9.0mph /  14.5km/h 18.0mph /  29km/h 76% 0.00in /  0mm
04:29 17.1 °F /  -8.3 °C 10.8 °F /  -11.8 °C 30.12in /  1019.9hPa WSW 10.0mph /  16.1km/h 18.0mph /  29km/h 76% 0.00in /  0mm
04:34 17.3 °F /  -8.2 °C 11.0 °F /  -11.7 °C 30.12in /  1019.9hPa SW 11.0mph /  17.7km/h 23.0mph /  37km/h 76% 0.00in /  0mm
04:39 17.3 °F /  -8.2 °C 11.3 °F /  -11.5 °C 30.12in /  1019.9hPa WSW 17.0mph /  27.4km/h 21.0mph /  33.8km/h 77% 0.00in /  0mm
04:44 17.4 °F /  -8.1 °C 11.4 °F /  -11.4 °C 30.11in /  1019.5hPa SW 9.0mph /  14.5km/h 19.0mph /  30.6km/h 77% 0.00in /  0mm
04:49 17.5 °F /  -8.1 °C 11.5 °F /  -11.4 °C 30.11in /  1019.5hPa WSW 12.0mph /  19.3km/h 21.0mph /  33.8km/h 77% 0.00in /  0mm
04:54 17.4 °F /  -8.1 °C 11.7 °F /  -11.3 °C 30.11in /  1019.5hPa West 15.0mph /  24.1km/h 23.0mph /  37km/h 78% 0.00in /  0mm
04:59 17.4 °F /  -8.1 °C 12.0 °F /  -11.1 °C 30.11in /  1019.5hPa WSW 13.0mph /  20.9km/h 23.0mph /  37km/h 79% 0.00in /  0mm
05:04 17.2 °F /  -8.2 °C 12.1 °F /  -11.1 °C 30.11in /  1019.5hPa WSW 13.0mph /  20.9km/h 22.0mph /  35.4km/h 80% 0.00in /  0mm
05:09 17.2 °F /  -8.2 °C 12.1 °F /  -11.1 °C 30.10in /  1019.2hPa WSW 12.0mph /  19.3km/h 21.0mph /  33.8km/h 80% 0.00in /  0mm
05:14 17.2 °F /  -8.2 °C 12.1 °F /  -11.1 °C 30.10in /  1019.2hPa SSW 7.0mph /  11.3km/h 24.0mph /  38.6km/h 80% 0.00in /  0mm
05:19 17.2 °F /  -8.2 °C 12.4 °F /  -10.9 °C 30.10in /  1019.2hPa SW 11.0mph /  17.7km/h 22.0mph /  35.4km/h 81% 0.00in /  0mm
05:24 17.1 °F /  -8.3 °C 12.3 °F /  -10.9 °C 30.10in /  1019.2hPa SW 11.0mph /  17.7km/h 20.0mph /  32.2km/h 81% 0.00in /  0mm
05:29 17.0 °F /  -8.3 °C 12.2 °F /  -11 °C 30.10in /  1019.2hPa WSW 12.0mph /  19.3km/h 24.0mph /  38.6km/h 81% 0.00in /  0mm
05:34 17.0 °F /  -8.3 °C 12.2 °F /  -11 °C 30.10in /  1019.2hPa WSW 12.0mph /  19.3km/h 25.0mph /  40.2km/h 81% 0.00in /  0mm
05:39 17.0 °F /  -8.3 °C 12.2 °F /  -11 °C 30.10in /  1019.2hPa WSW 13.0mph /  20.9km/h 25.0mph /  40.2km/h 81% 0.00in /  0mm
05:44 17.0 °F /  -8.3 °C 12.5 °F /  -10.8 °C 30.10in /  1019.2hPa WSW 13.0mph /  20.9km/h 25.0mph /  40.2km/h 82% 0.00in /  0mm
05:49 17.1 °F /  -8.3 °C 12.6 °F /  -10.8 °C 30.10in /  1019.2hPa WSW 14.0mph /  22.5km/h 27.0mph /  43.5km/h 82% 0.00in /  0mm
05:54 17.1 °F /  -8.3 °C 12.3 °F /  -10.9 °C 30.10in /  1019.2hPa SW 14.0mph /  22.5km/h 26.0mph /  41.8km/h 81% 0.00in /  0mm
05:59 17.0 °F /  -8.3 °C 12.5 °F /  -10.8 °C 30.11in /  1019.5hPa WSW 13.0mph /  20.9km/h 26.0mph /  41.8km/h 82% 0.00in /  0mm
06:04 17.1 °F /  -8.3 °C 12.6 °F /  -10.8 °C 30.11in /  1019.5hPa WSW 13.0mph /  20.9km/h 24.0mph /  38.6km/h 82% 0.00in /  0mm
06:09 17.1 °F /  -8.3 °C 12.6 °F /  -10.8 °C 30.11in /  1019.5hPa SW 11.0mph /  17.7km/h 27.0mph /  43.5km/h 82% 0.00in /  0mm
06:14 17.1 °F /  -8.3 °C 12.6 °F /  -10.8 °C 30.11in /  1019.5hPa WSW 10.0mph /  16.1km/h 23.0mph /  37km/h 82% 0.00in /  0mm
06:19 17.2 °F /  -8.2 °C 12.6 °F /  -10.8 °C 30.11in /  1019.5hPa WSW 11.0mph /  17.7km/h 22.0mph /  35.4km/h 82% 0.00in /  0mm
06:24 17.1 °F /  -8.3 °C 12.6 °F /  -10.8 °C 30.11in /  1019.5hPa SSW 9.0mph /  14.5km/h 25.0mph /  40.2km/h 82% 0.00in /  0mm
06:29 17.1 °F /  -8.3 °C 12.6 °F /  -10.8 °C 30.11in /  1019.5hPa WSW 10.0mph /  16.1km/h 21.0mph /  33.8km/h 82% 0.00in /  0mm
06:34 17.2 °F /  -8.2 °C 12.6 °F /  -10.8 °C 30.11in /  1019.5hPa WSW 13.0mph /  20.9km/h 23.0mph /  37km/h 82% 0.00in /  0mm
06:39 17.2 °F /  -8.2 °C 12.6 °F /  -10.8 °C 30.11in /  1019.5hPa WSW 14.0mph /  22.5km/h 23.0mph /  37km/h 82% 0.00in /  0mm
06:44 17.2 °F /  -8.2 °C 12.6 °F /  -10.8 °C 30.11in /  1019.5hPa WSW 13.0mph /  20.9km/h 24.0mph /  38.6km/h 82% 0.00in /  0mm
06:49 17.3 °F /  -8.2 °C 12.7 °F /  -10.7 °C 30.11in /  1019.5hPa WSW 13.0mph /  20.9km/h 24.0mph /  38.6km/h 82% 0.00in /  0mm
06:54 17.3 °F /  -8.2 °C 12.7 °F /  -10.7 °C 30.11in /  1019.5hPa WSW 13.0mph /  20.9km/h 23.0mph /  37km/h 82% 0.00in /  0mm
06:59 17.3 °F /  -8.2 °C 12.7 °F /  -10.7 °C 30.11in /  1019.5hPa WSW 12.0mph /  19.3km/h 23.0mph /  37km/h 82% 0.00in /  0mm
07:04 17.3 °F /  -8.2 °C 12.7 °F /  -10.7 °C 30.11in /  1019.5hPa WSW 12.0mph /  19.3km/h 21.0mph /  33.8km/h 82% 0.00in /  0mm
07:09 17.4 °F /  -8.1 °C 12.8 °F /  -10.7 °C 30.11in /  1019.5hPa WSW 18.0mph /  29km/h 27.0mph /  43.5km/h 82% 0.00in /  0mm
07:14 17.4 °F /  -8.1 °C 12.8 °F /  -10.7 °C 30.11in /  1019.5hPa WSW 15.0mph /  24.1km/h 27.0mph /  43.5km/h 82% 0.00in /  0mm
07:19 17.4 °F /  -8.1 °C 13.1 °F /  -10.5 °C 30.11in /  1019.5hPa WSW 20.0mph /  32.2km/h 25.0mph /  40.2km/h 83% 0.00in /  0mm
07:24 17.4 °F /  -8.1 °C 13.1 °F /  -10.5 °C 30.11in /  1019.5hPa WSW 20.0mph /  32.2km/h 32.0mph /  51.5km/h 83% 0.00in /  0mm
07:29 17.5 °F /  -8.1 °C 13.2 °F /  -10.4 °C 30.11in /  1019.5hPa WSW 19.0mph /  30.6km/h 24.0mph /  38.6km/h 83% 0.00in /  0mm
07:34 17.5 °F /  -8.1 °C 13.2 °F /  -10.4 °C 30.11in /  1019.5hPa SW 14.0mph /  22.5km/h 25.0mph /  40.2km/h 83% 0.00in /  0mm
07:39 17.5 °F /  -8.1 °C 13.2 °F /  -10.4 °C 30.11in /  1019.5hPa WSW 12.0mph /  19.3km/h 27.0mph /  43.5km/h 83% 0.00in /  0mm
07:44 17.5 °F /  -8.1 °C 13.2 °F /  -10.4 °C 30.11in /  1019.5hPa WSW 14.0mph /  22.5km/h 27.0mph /  43.5km/h 83% 0.00in /  0mm
07:49 17.6 °F /  -8 °C 13.3 °F /  -10.4 °C 30.11in /  1019.5hPa WSW 14.0mph /  22.5km/h 27.0mph /  43.5km/h 83% 0.00in /  0mm
07:54 17.7 °F /  -7.9 °C 13.4 °F /  -10.3 °C 30.11in /  1019.5hPa WSW 13.0mph /  20.9km/h 27.0mph /  43.5km/h 83% 0.00in /  0mm
07:59 17.7 °F /  -7.9 °C 13.4 °F /  -10.3 °C 30.11in /  1019.5hPa WSW 12.0mph /  19.3km/h 25.0mph /  40.2km/h 83% 0.00in /  0mm
08:04 17.7 °F /  -7.9 °C 13.4 °F /  -10.3 °C 30.11in /  1019.5hPa WSW 11.0mph /  17.7km/h 22.0mph /  35.4km/h 83% 0.00in /  0mm
08:09 17.8 °F /  -7.9 °C 13.5 °F /  -10.3 °C 30.11in /  1019.5hPa SW 12.0mph /  19.3km/h 22.0mph /  35.4km/h 83% 0.00in /  0mm
08:14 17.8 °F /  -7.9 °C 13.5 °F /  -10.3 °C 30.11in /  1019.5hPa WSW 11.0mph /  17.7km/h 24.0mph /  38.6km/h 83% 0.00in /  0mm
08:19 17.8 °F /  -7.9 °C 13.5 °F /  -10.3 °C 30.11in /  1019.5hPa WSW 11.0mph /  17.7km/h 24.0mph /  38.6km/h 83% 0.00in /  0mm
08:24 17.8 °F /  -7.9 °C 13.5 °F /  -10.3 °C 30.11in /  1019.5hPa SW 16.0mph /  25.7km/h 20.0mph /  32.2km/h 83% 0.00in /  0mm
08:29 17.7 °F /  -7.9 °C 13.4 °F /  -10.3 °C 30.12in /  1019.9hPa SW 10.0mph /  16.1km/h 19.0mph /  30.6km/h 83% 0.00in /  0mm
08:34 17.8 °F /  -7.9 °C 13.5 °F /  -10.3 °C 30.12in /  1019.9hPa WSW 16.0mph /  25.7km/h 22.0mph /  35.4km/h 83% 0.00in /  0mm
08:39 17.8 °F /  -7.9 °C 13.8 °F /  -10.1 °C 30.12in /  1019.9hPa SSW 13.0mph /  20.9km/h 21.0mph /  33.8km/h 84% 0.00in /  0mm
08:44 17.9 °F /  -7.8 °C 13.9 °F /  -10.1 °C 30.12in /  1019.9hPa West 15.0mph /  24.1km/h 19.0mph /  30.6km/h 84% 0.00in /  0mm
08:49 17.9 °F /  -7.8 °C 13.9 °F /  -10.1 °C 30.12in /  1019.9hPa WSW 11.0mph /  17.7km/h 20.0mph /  32.2km/h 84% 0.00in /  0mm
08:54 17.9 °F /  -7.8 °C 13.9 °F /  -10.1 °C 30.12in /  1019.9hPa WSW 11.0mph /  17.7km/h 23.0mph /  37km/h 84% 0.00in /  0mm
08:59 17.9 °F /  -7.8 °C 13.9 °F /  -10.1 °C 30.12in /  1019.9hPa WSW 12.0mph /  19.3km/h 23.0mph /  37km/h 84% 0.00in /  0mm
09:04 17.9 °F /  -7.8 °C 13.9 °F /  -10.1 °C 30.12in /  1019.9hPa WSW 12.0mph /  19.3km/h 25.0mph /  40.2km/h 84% 0.00in /  0mm
09:09 17.9 °F /  -7.8 °C 13.9 °F /  -10.1 °C 30.13in /  1020.2hPa SW 15.0mph /  24.1km/h 17.0mph /  27.4km/h 84% 0.00in /  0mm
09:14 18.0 °F /  -7.8 °C 14.3 °F /  -9.8 °C 30.13in /  1020.2hPa WSW 10.0mph /  16.1km/h 18.0mph /  29km/h 85% 0.00in /  0mm
09:19 18.0 °F /  -7.8 °C 14.0 °F /  -10 °C 30.13in /  1020.2hPa WSW 11.0mph /  17.7km/h 16.0mph /  25.7km/h 84% 0.00in /  0mm
09:24 17.9 °F /  -7.8 °C 14.2 °F /  -9.9 °C 30.13in /  1020.2hPa WSW 11.0mph /  17.7km/h 17.0mph /  27.4km/h 85% 0.00in /  0mm
09:29 17.9 °F /  -7.8 °C 14.2 °F /  -9.9 °C 30.13in /  1020.2hPa WSW 11.0mph /  17.7km/h 22.0mph /  35.4km/h 85% 0.00in /  0mm
09:34 17.9 °F /  -7.8 °C 14.2 °F /  -9.9 °C 30.13in /  1020.2hPa SW 11.0mph /  17.7km/h 22.0mph /  35.4km/h 85% 0.00in /  0mm
09:39 17.9 °F /  -7.8 °C 14.2 °F /  -9.9 °C 30.13in /  1020.2hPa SW 8.0mph /  12.9km/h 22.0mph /  35.4km/h 85% 0.00in /  0mm
09:44 18.0 °F /  -7.8 °C 14.3 °F /  -9.8 °C 30.13in /  1020.2hPa SSW 10.0mph /  16.1km/h 17.0mph /  27.4km/h 85% 0.00in /  0mm
09:49 18.0 °F /  -7.8 °C 14.3 °F /  -9.8 °C 30.13in /  1020.2hPa West 16.0mph /  25.7km/h 23.0mph /  37km/h 85% 0.00in /  0mm
09:54 18.0 °F /  -7.8 °C 14.3 °F /  -9.8 °C 30.13in /  1020.2hPa WSW 12.0mph /  19.3km/h 23.0mph /  37km/h 85% 0.00in /  0mm
09:59 18.1 °F /  -7.7 °C 14.4 °F /  -9.8 °C 30.13in /  1020.2hPa WSW 11.0mph /  17.7km/h 22.0mph /  35.4km/h 85% 0.00in /  0mm
10:04 18.1 °F /  -7.7 °C 14.4 °F /  -9.8 °C 30.13in /  1020.2hPa WSW 11.0mph /  17.7km/h 20.0mph /  32.2km/h 85% 0.00in /  0mm
10:09 18.1 °F /  -7.7 °C 14.4 °F /  -9.8 °C 30.14in /  1020.5hPa WSW 12.0mph /  19.3km/h 20.0mph /  32.2km/h 85% 0.00in /  0mm
10:14 18.2 °F /  -7.7 °C 14.4 °F /  -9.8 °C 30.14in /  1020.5hPa SW 17.0mph /  27.4km/h 23.0mph /  37km/h 85% 0.00in /  0mm
10:19 18.2 °F /  -7.7 °C 14.2 °F /  -9.9 °C 30.14in /  1020.5hPa West 11.0mph /  17.7km/h 23.0mph /  37km/h 84% 0.00in /  0mm
10:24 18.2 °F /  -7.7 °C 14.2 °F /  -9.9 °C 30.14in /  1020.5hPa SSW 11.0mph /  17.7km/h 21.0mph /  33.8km/h 84% 0.00in /  0mm
10:29 18.2 °F /  -7.7 °C 14.2 °F /  -9.9 °C 30.14in /  1020.5hPa WSW 11.0mph /  17.7km/h 21.0mph /  33.8km/h 84% 0.00in /  0mm
10:34 18.3 °F /  -7.6 °C 14.3 °F /  -9.8 °C 30.14in /  1020.5hPa WSW 12.0mph /  19.3km/h 20.0mph /  32.2km/h 84% 0.00in /  0mm
10:39 18.4 °F /  -7.6 °C 14.4 °F /  -9.8 °C 30.14in /  1020.5hPa WSW 10.0mph /  16.1km/h 20.0mph /  32.2km/h 84% 0.00in /  0mm
10:44 18.4 °F /  -7.6 °C 14.4 °F /  -9.8 °C 30.13in /  1020.2hPa WSW 15.0mph /  24.1km/h 21.0mph /  33.8km/h 84% 0.00in /  0mm
10:49 18.5 °F /  -7.5 °C 14.5 °F /  -9.7 °C 30.13in /  1020.2hPa West 12.0mph /  19.3km/h 23.0mph /  37km/h 84% 0.00in /  0mm
10:54 18.5 °F /  -7.5 °C 14.5 °F /  -9.7 °C 30.13in /  1020.2hPa SSW 10.0mph /  16.1km/h 25.0mph /  40.2km/h 84% 0.00in /  0mm
10:59 18.6 °F /  -7.4 °C 14.3 °F /  -9.8 °C 30.14in /  1020.5hPa WSW 10.0mph /  16.1km/h 21.0mph /  33.8km/h 83% 0.00in /  0mm
11:04 18.5 °F /  -7.5 °C 14.2 °F /  -9.9 °C 30.14in /  1020.5hPa WSW 12.0mph /  19.3km/h 24.0mph /  38.6km/h 83% 0.00in /  0mm
11:09 18.6 °F /  -7.4 °C 14.3 °F /  -9.8 °C 30.14in /  1020.5hPa WSW 11.0mph /  17.7km/h 24.0mph /  38.6km/h 83% 0.00in /  0mm
11:14 18.7 °F /  -7.4 °C 14.4 °F /  -9.8 °C 30.14in /  1020.5hPa WSW 11.0mph /  17.7km/h 16.0mph /  25.7km/h 83% 0.00in /  0mm
11:19 18.6 °F /  -7.4 °C 14.3 °F /  -9.8 °C 30.13in /  1020.2hPa SSW 9.0mph /  14.5km/h 20.0mph /  32.2km/h 83% 0.00in /  0mm
11:24 18.7 °F /  -7.4 °C 14.4 °F /  -9.8 °C 30.14in /  1020.5hPa WSW 13.0mph /  20.9km/h 22.0mph /  35.4km/h 83% 0.00in /  0mm
11:29 18.9 °F /  -7.3 °C 14.6 °F /  -9.7 °C 30.13in /  1020.2hPa West 16.0mph /  25.7km/h 19.0mph /  30.6km/h 83% 0.00in /  0mm
11:34 18.8 °F /  -7.3 °C 14.5 °F /  -9.7 °C 30.13in /  1020.2hPa WSW 11.0mph /  17.7km/h 21.0mph /  33.8km/h 83% 0.00in /  0mm
11:39 18.8 °F /  -7.3 °C 14.5 °F /  -9.7 °C 30.13in /  1020.2hPa WSW 11.0mph /  17.7km/h 21.0mph /  33.8km/h 83% 0.00in /  0mm
11:44 18.8 °F /  -7.3 °C 14.5 °F /  -9.7 °C 30.13in /  1020.2hPa SW 10.0mph /  16.1km/h 22.0mph /  35.4km/h 83% 0.00in /  0mm
11:49 18.9 °F /  -7.3 °C 14.6 °F /  -9.7 °C 30.13in /  1020.2hPa WSW 11.0mph /  17.7km/h 22.0mph /  35.4km/h 83% 0.00in /  0mm
11:54 18.9 °F /  -7.3 °C 14.6 °F /  -9.7 °C 30.12in /  1019.9hPa West 13.0mph /  20.9km/h 21.0mph /  33.8km/h 83% 0.00in /  0mm
11:59 18.9 °F /  -7.3 °C 14.6 °F /  -9.7 °C 30.12in /  1019.9hPa West 8.0mph /  12.9km/h 22.0mph /  35.4km/h 83% 0.00in /  0mm
12:04 19.1 °F /  -7.2 °C 14.8 °F /  -9.6 °C 30.11in /  1019.5hPa SSE 11.0mph /  17.7km/h 17.0mph /  27.4km/h 83% 0.00in /  0mm
12:09 19.1 °F /  -7.2 °C 14.8 °F /  -9.6 °C 30.11in /  1019.5hPa SW 11.0mph /  17.7km/h 20.0mph /  32.2km/h 83% 0.00in /  0mm
12:14 19.3 °F /  -7.1 °C 15.0 °F /  -9.4 °C 30.11in /  1019.5hPa West 8.0mph /  12.9km/h 17.0mph /  27.4km/h 83% 0.00in /  0mm
12:19 19.3 °F /  -7.1 °C 15.0 °F /  -9.4 °C 30.11in /  1019.5hPa WSW 5.0mph /  8km/h 19.0mph /  30.6km/h 83% 0.00in /  0mm
12:24 19.4 °F /  -7 °C 15.1 °F /  -9.4 °C 30.11in /  1019.5hPa WSW 7.0mph /  11.3km/h 17.0mph /  27.4km/h 83% 0.00in /  0mm
12:29 19.5 °F /  -6.9 °C 15.2 °F /  -9.3 °C 30.11in /  1019.5hPa WSW 7.0mph /  11.3km/h 20.0mph /  32.2km/h 83% 0.00in /  0mm
12:34 19.6 °F /  -6.9 °C 15.3 °F /  -9.3 °C 30.11in /  1019.5hPa WSW 8.0mph /  12.9km/h 16.0mph /  25.7km/h 83% 0.00in /  0mm
12:39 19.4 °F /  -7 °C 15.1 °F /  -9.4 °C 30.10in /  1019.2hPa SW 10.0mph /  16.1km/h 22.0mph /  35.4km/h 83% 0.00in /  0mm
12:44 19.5 °F /  -6.9 °C 15.2 °F /  -9.3 °C 30.10in /  1019.2hPa SW 10.0mph /  16.1km/h 22.0mph /  35.4km/h 83% 0.00in /  0mm
12:49 19.3 °F /  -7.1 °C 15.0 °F /  -9.4 °C 30.10in /  1019.2hPa SW 10.0mph /  16.1km/h 24.0mph /  38.6km/h 83% 0.00in /  0mm
12:54 19.3 °F /  -7.1 °C 15.0 °F /  -9.4 °C 30.10in /  1019.2hPa SW 11.0mph /  17.7km/h 24.0mph /  38.6km/h 83% 0.00in /  0mm
12:59 19.3 °F /  -7.1 °C 15.0 °F /  -9.4 °C 30.09in /  1018.8hPa SW 11.0mph /  17.7km/h 19.0mph /  30.6km/h 83% 0.00in /  0mm
13:04 19.3 °F /  -7.1 °C 15.0 °F /  -9.4 °C 30.09in /  1018.8hPa SW 10.0mph /  16.1km/h 21.0mph /  33.8km/h 83% 0.00in /  0mm
13:09 19.2 °F /  -7.1 °C 14.9 °F /  -9.5 °C 30.09in /  1018.8hPa WSW 6.0mph /  9.7km/h 22.0mph /  35.4km/h 83% 0.00in /  0mm
13:14 19.2 °F /  -7.1 °C 14.9 °F /  -9.5 °C 30.09in /  1018.8hPa SW 11.0mph /  17.7km/h 22.0mph /  35.4km/h 83% 0.00in /  0mm
13:19 19.2 °F /  -7.1 °C 14.9 °F /  -9.5 °C 30.09in /  1018.8hPa SW 16.0mph /  25.7km/h 21.0mph /  33.8km/h 83% 0.00in /  0mm
13:24 19.2 °F /  -7.1 °C 15.2 °F /  -9.3 °C 30.08in /  1018.5hPa West 10.0mph /  16.1km/h 22.0mph /  35.4km/h 84% 0.00in /  0mm
13:29 19.2 °F /  -7.1 °C 14.9 °F /  -9.5 °C 30.08in /  1018.5hPa SW 12.0mph /  19.3km/h 20.0mph /  32.2km/h 83% 0.00in /  0mm
13:34 19.3 °F /  -7.1 °C 15.3 °F /  -9.3 °C 30.08in /  1018.5hPa SW 20.0mph /  32.2km/h 20.0mph /  32.2km/h 84% 0.00in /  0mm
13:39 19.4 °F /  -7 °C 15.4 °F /  -9.2 °C 30.08in /  1018.5hPa SSW 10.0mph /  16.1km/h 20.0mph /  32.2km/h 84% 0.00in /  0mm
13:44 19.4 °F /  -7 °C 15.4 °F /  -9.2 °C 30.08in /  1018.5hPa WSW 6.0mph /  9.7km/h 21.0mph /  33.8km/h 84% 0.00in /  0mm
13:49 19.5 °F /  -6.9 °C 15.5 °F /  -9.2 °C 30.08in /  1018.5hPa SW 11.0mph /  17.7km/h 22.0mph /  35.4km/h 84% 0.00in /  0mm
13:54 19.5 °F /  -6.9 °C 15.5 °F /  -9.2 °C 30.08in /  1018.5hPa SW 12.0mph /  19.3km/h 25.0mph /  40.2km/h 84% 0.00in /  0mm
13:59 19.6 °F /  -6.9 °C 15.6 °F /  -9.1 °C 30.08in /  1018.5hPa SW 11.0mph /  17.7km/h 25.0mph /  40.2km/h 84% 0.00in /  0mm
14:04 19.8 °F /  -6.8 °C 15.7 °F /  -9.1 °C 30.08in /  1018.5hPa SW 10.0mph /  16.1km/h 20.0mph /  32.2km/h 84% 0.00in /  0mm
14:09 19.8 °F /  -6.8 °C 15.7 °F /  -9.1 °C 30.08in /  1018.5hPa WSW 11.0mph /  17.7km/h 19.0mph /  30.6km/h 84% 0.00in /  0mm
14:14 19.9 °F /  -6.7 °C 15.8 °F /  -9 °C 30.08in /  1018.5hPa WSW 11.0mph /  17.7km/h 23.0mph /  37km/h 84% 0.00in /  0mm
14:19 20.0 °F /  -6.7 °C 15.9 °F /  -8.9 °C 30.08in /  1018.5hPa WSW 11.0mph /  17.7km/h 26.0mph /  41.8km/h 84% 0.00in /  0mm
14:24 20.0 °F /  -6.7 °C 15.7 °F /  -9.1 °C 30.08in /  1018.5hPa WSW 11.0mph /  17.7km/h 26.0mph /  41.8km/h 83% 0.00in /  0mm
14:29 20.1 °F /  -6.6 °C 15.8 °F /  -9 °C 30.08in /  1018.5hPa SW 11.0mph /  17.7km/h 26.0mph /  41.8km/h 83% 0.00in /  0mm
14:34 20.1 °F /  -6.6 °C 15.8 °F /  -9 °C 30.08in /  1018.5hPa West 10.0mph /  16.1km/h 24.0mph /  38.6km/h 83% 0.00in /  0mm
14:39 20.1 °F /  -6.6 °C 15.8 °F /  -9 °C 30.08in /  1018.5hPa West 20.0mph /  32.2km/h 26.0mph /  41.8km/h 83% 0.00in /  0mm
14:44 20.1 °F /  -6.6 °C 15.8 °F /  -9 °C 30.08in /  1018.5hPa West 10.0mph /  16.1km/h 23.0mph /  37km/h 83% 0.00in /  0mm
14:49 20.2 °F /  -6.6 °C 15.9 °F /  -8.9 °C 30.08in /  1018.5hPa SW 13.0mph /  20.9km/h 20.0mph /  32.2km/h 83% 0.00in /  0mm
14:54 20.2 °F /  -6.6 °C 15.9 °F /  -8.9 °C 30.09in /  1018.8hPa SW 14.0mph /  22.5km/h 22.0mph /  35.4km/h 83% 0.00in /  0mm
14:59 20.3 °F /  -6.5 °C 16.0 °F /  -8.9 °C 30.08in /  1018.5hPa WSW 12.0mph /  19.3km/h 22.0mph /  35.4km/h 83% 0.00in /  0mm
15:04 20.4 °F /  -6.4 °C 16.1 °F /  -8.8 °C 30.08in /  1018.5hPa SW 11.0mph /  17.7km/h 22.0mph /  35.4km/h 83% 0.00in /  0mm
15:09 20.5 °F /  -6.4 °C 16.2 °F /  -8.8 °C 30.08in /  1018.5hPa SW 10.0mph /  16.1km/h 19.0mph /  30.6km/h 83% 0.00in /  0mm
15:14 20.5 °F /  -6.4 °C 15.9 °F /  -8.9 °C 30.08in /  1018.5hPa South 10.0mph /  16.1km/h 21.0mph /  33.8km/h 82% 0.00in /  0mm
15:19 20.6 °F /  -6.3 °C 16.0 °F /  -8.9 °C 30.08in /  1018.5hPa WSW 10.0mph /  16.1km/h 21.0mph /  33.8km/h 82% 0.00in /  0mm
15:24 20.7 °F /  -6.3 °C 16.1 °F /  -8.8 °C 30.08in /  1018.5hPa WSW 12.0mph /  19.3km/h 16.0mph /  25.7km/h 82% 0.00in /  0mm
15:29 20.9 °F /  -6.2 °C 16.3 °F /  -8.7 °C 30.08in /  1018.5hPa WSW 13.0mph /  20.9km/h 15.0mph /  24.1km/h 82% 0.00in /  0mm
15:34 21.0 °F /  -6.1 °C 16.4 °F /  -8.7 °C 30.08in /  1018.5hPa WSW 10.0mph /  16.1km/h 16.0mph /  25.7km/h 82% 0.00in /  0mm
15:39 21.0 °F /  -6.1 °C 16.1 °F /  -8.8 °C 30.07in /  1018.2hPa WSW 10.0mph /  16.1km/h 16.0mph /  25.7km/h 81% 0.00in /  0mm
15:44 21.0 °F /  -6.1 °C 16.1 °F /  -8.8 °C 30.08in /  1018.5hPa WSW 9.0mph /  14.5km/h 17.0mph /  27.4km/h 81% 0.00in /  0mm
15:49 21.0 °F /  -6.1 °C 16.1 °F /  -8.8 °C 30.07in /  1018.2hPa WSW 12.0mph /  19.3km/h 20.0mph /  32.2km/h 81% 0.00in /  0mm
15:59 21.1 °F /  -6.1 °C 16.2 °F /  -8.8 °C 30.06in /  1017.8hPa SW 8.0mph /  12.9km/h 20.0mph /  32.2km/h 81% 0.00in /  0mm
16:04 21.2 °F /  -6 °C 16.3 °F /  -8.7 °C 30.06in /  1017.8hPa WSW 8.0mph /  12.9km/h 20.0mph /  32.2km/h 81% 0.00in /  0mm
16:09 21.3 °F /  -5.9 °C 16.1 °F /  -8.8 °C 30.06in /  1017.8hPa WSW 11.0mph /  17.7km/h 25.0mph /  40.2km/h 80% 0.00in /  0mm
16:14 21.3 °F /  -5.9 °C 16.1 °F /  -8.8 °C 30.06in /  1017.8hPa WSW 10.0mph /  16.1km/h 25.0mph /  40.2km/h 80% 0.00in /  0mm
16:19 21.2 °F /  -6 °C 16.0 °F /  -8.9 °C 30.06in /  1017.8hPa WSW 9.0mph /  14.5km/h 18.0mph /  29km/h 80% 0.00in /  0mm
16:24 21.1 °F /  -6.1 °C 15.6 °F /  -9.1 °C 30.06in /  1017.8hPa WSW 9.0mph /  14.5km/h 17.0mph /  27.4km/h 79% 0.00in /  0mm
16:29 21.1 °F /  -6.1 °C 15.6 °F /  -9.1 °C 30.06in /  1017.8hPa WSW 8.0mph /  12.9km/h 17.0mph /  27.4km/h 79% 0.00in /  0mm
16:34 21.1 °F /  -6.1 °C 15.6 °F /  -9.1 °C 30.06in /  1017.8hPa WSW 9.0mph /  14.5km/h 18.0mph /  29km/h 79% 0.00in /  0mm
16:39 21.1 °F /  -6.1 °C 15.6 °F /  -9.1 °C 30.06in /  1017.8hPa WSW 9.0mph /  14.5km/h 19.0mph /  30.6km/h 79% 0.00in /  0mm
16:44 21.0 °F /  -6.1 °C 15.5 °F /  -9.2 °C 30.06in /  1017.8hPa WSW 4.0mph /  6.4km/h 14.0mph /  22.5km/h 79% 0.00in /  0mm
16:49 20.9 °F /  -6.2 °C 15.4 °F /  -9.2 °C 30.05in /  1017.5hPa West 16.0mph /  25.7km/h 16.0mph /  25.7km/h 79% 0.00in /  0mm
16:54 20.9 °F /  -6.2 °C 15.4 °F /  -9.2 °C 30.05in /  1017.5hPa WSW 7.0mph /  11.3km/h 18.0mph /  29km/h 79% 0.00in /  0mm
16:59 20.9 °F /  -6.2 °C 15.4 °F /  -9.2 °C 30.05in /  1017.5hPa WSW 6.0mph /  9.7km/h 19.0mph /  30.6km/h 79% 0.00in /  0mm
17:04 20.9 °F /  -6.2 °C 15.4 °F /  -9.2 °C 30.06in /  1017.8hPa WSW 10.0mph /  16.1km/h 18.0mph /  29km/h 79% 0.00in /  0mm
17:09 21.0 °F /  -6.1 °C 15.5 °F /  -9.2 °C 30.05in /  1017.5hPa WSW 7.0mph /  11.3km/h 14.0mph /  22.5km/h 79% 0.00in /  0mm
17:14 21.0 °F /  -6.1 °C 15.5 °F /  -9.2 °C 30.05in /  1017.5hPa WSW 9.0mph /  14.5km/h 18.0mph /  29km/h 79% 0.00in /  0mm
17:19 21.1 °F /  -6.1 °C 15.6 °F /  -9.1 °C 30.06in /  1017.8hPa WSW 9.0mph /  14.5km/h 18.0mph /  29km/h 79% 0.00in /  0mm
17:24 21.2 °F /  -6 °C 15.4 °F /  -9.2 °C 30.05in /  1017.5hPa WSW 10.0mph /  16.1km/h 17.0mph /  27.4km/h 78% 0.00in /  0mm
17:29 21.2 °F /  -6 °C 15.4 °F /  -9.2 °C 30.05in /  1017.5hPa WSW 9.0mph /  14.5km/h 17.0mph /  27.4km/h 78% 0.00in /  0mm
17:34 21.2 °F /  -6 °C 15.4 °F /  -9.2 °C 30.05in /  1017.5hPa West 7.0mph /  11.3km/h 14.0mph /  22.5km/h 78% 0.00in /  0mm
17:39 21.3 °F /  -5.9 °C 15.5 °F /  -9.2 °C 30.05in /  1017.5hPa WSW 5.0mph /  8km/h 17.0mph /  27.4km/h 78% 0.00in /  0mm
17:44 21.4 °F /  -5.9 °C 15.6 °F /  -9.1 °C 30.05in /  1017.5hPa SSW 7.0mph /  11.3km/h 13.0mph /  20.9km/h 78% 0.00in /  0mm
17:49 21.4 °F /  -5.9 °C 15.6 °F /  -9.1 °C 30.05in /  1017.5hPa WSW 6.0mph /  9.7km/h 13.0mph /  20.9km/h 78% 0.00in /  0mm
17:54 21.6 °F /  -5.8 °C 15.8 °F /  -9 °C 30.05in /  1017.5hPa WSW 8.0mph /  12.9km/h 15.0mph /  24.1km/h 78% 0.00in /  0mm
17:59 21.7 °F /  -5.7 °C 15.9 °F /  -8.9 °C 30.06in /  1017.8hPa WSW 9.0mph /  14.5km/h 16.0mph /  25.7km/h 78% 0.00in /  0mm
18:04 21.8 °F /  -5.7 °C 16.0 °F /  -8.9 °C 30.05in /  1017.5hPa West 6.0mph /  9.7km/h 15.0mph /  24.1km/h 78% 0.00in /  0mm
18:09 21.9 °F /  -5.6 °C 16.1 °F /  -8.8 °C 30.05in /  1017.5hPa West 4.0mph /  6.4km/h 14.0mph /  22.5km/h 78% 0.00in /  0mm
18:14 22.0 °F /  -5.6 °C 16.2 °F /  -8.8 °C 30.06in /  1017.8hPa WSW 5.0mph /  8km/h 13.0mph /  20.9km/h 78% 0.00in /  0mm
18:19 22.1 °F /  -5.5 °C 16.3 °F /  -8.7 °C 30.06in /  1017.8hPa SSE 4.0mph /  6.4km/h 14.0mph /  22.5km/h 78% 0.00in /  0mm
18:24 22.1 °F /  -5.5 °C 16.3 °F /  -8.7 °C 30.06in /  1017.8hPa WSW 7.0mph /  11.3km/h 18.0mph /  29km/h 78% 0.00in /  0mm
18:29 22.1 °F /  -5.5 °C 16.3 °F /  -8.7 °C 30.06in /  1017.8hPa WSW 7.0mph /  11.3km/h 18.0mph /  29km/h 78% 0.00in /  0mm
18:34 22.1 °F /  -5.5 °C 16.3 °F /  -8.7 °C 30.06in /  1017.8hPa WSW 12.0mph /  19.3km/h 12.0mph /  19.3km/h 78% 0.00in /  0mm
18:39 22.1 °F /  -5.5 °C 16.3 °F /  -8.7 °C 30.06in /  1017.8hPa SW 5.0mph /  8km/h 13.0mph /  20.9km/h 78% 0.00in /  0mm
18:44 22.1 °F /  -5.5 °C 16.3 °F /  -8.7 °C 30.06in /  1017.8hPa SW 5.0mph /  8km/h 15.0mph /  24.1km/h 78% 0.00in /  0mm
18:49 22.1 °F /  -5.5 °C 16.3 °F /  -8.7 °C 30.06in /  1017.8hPa SW 7.0mph /  11.3km/h 10.0mph /  16.1km/h 78% 0.00in /  0mm
18:54 22.1 °F /  -5.5 °C 16.6 °F /  -8.6 °C 30.06in /  1017.8hPa SW 8.0mph /  12.9km/h 14.0mph /  22.5km/h 79% 0.00in /  0mm
18:59 22.1 °F /  -5.5 °C 16.6 °F /  -8.6 °C 30.06in /  1017.8hPa SW 7.0mph /  11.3km/h 14.0mph /  22.5km/h 79% 0.00in /  0mm
19:04 22.1 °F /  -5.5 °C 16.6 °F /  -8.6 °C 30.05in /  1017.5hPa SW 6.0mph /  9.7km/h 13.0mph /  20.9km/h 79% 0.00in /  0mm
19:09 22.1 °F /  -5.5 °C 16.6 °F /  -8.6 °C 30.05in /  1017.5hPa SW 6.0mph /  9.7km/h 12.0mph /  19.3km/h 79% 0.00in /  0mm
19:14 22.0 °F /  -5.6 °C 16.5 °F /  -8.6 °C 30.05in /  1017.5hPa SW 6.0mph /  9.7km/h 12.0mph /  19.3km/h 79% 0.00in /  0mm
19:19 22.0 °F /  -5.6 °C 16.8 °F /  -8.4 °C 30.05in /  1017.5hPa Calm   9.0mph /  14.5km/h 80% 0.00in /  0mm
19:24 21.8 °F /  -5.7 °C 16.6 °F /  -8.6 °C 30.05in /  1017.5hPa SW 2.0mph /  3.2km/h 10.0mph /  16.1km/h 80% 0.00in /  0mm
19:29 21.6 °F /  -5.8 °C 16.4 °F /  -8.7 °C 30.04in /  1017.2hPa SSW 4.0mph /  6.4km/h 10.0mph /  16.1km/h 80% 0.00in /  0mm
19:34 21.4 °F /  -5.9 °C 16.2 °F /  -8.8 °C 30.04in /  1017.2hPa SSW 4.0mph /  6.4km/h 8.0mph /  12.9km/h 80% 0.00in /  0mm
19:39 21.1 °F /  -6.1 °C 15.9 °F /  -8.9 °C 30.04in /  1017.2hPa SSW 3.0mph /  4.8km/h 7.0mph /  11.3km/h 80% 0.00in /  0mm
19:44 20.9 °F /  -6.2 °C 15.7 °F /  -9.1 °C 30.04in /  1017.2hPa SSW 3.0mph /  4.8km/h 8.0mph /  12.9km/h 80% 0.00in /  0mm
19:49 20.8 °F /  -6.2 °C 15.6 °F /  -9.1 °C 30.04in /  1017.2hPa SW 3.0mph /  4.8km/h 7.0mph /  11.3km/h 80% 0.00in /  0mm
19:54 20.8 °F /  -6.2 °C 15.3 °F /  -9.3 °C 30.04in /  1017.2hPa SSW 4.0mph /  6.4km/h 10.0mph /  16.1km/h 79% 0.00in /  0mm
19:59 20.7 °F /  -6.3 °C 14.9 °F /  -9.5 °C 30.04in /  1017.2hPa South 3.0mph /  4.8km/h 9.0mph /  14.5km/h 78% 0.00in /  0mm
20:04 20.7 °F /  -6.3 °C 14.9 °F /  -9.5 °C 30.03in /  1016.8hPa SSW 5.0mph /  8km/h 11.0mph /  17.7km/h 78% 0.00in /  0mm
20:09 20.7 °F /  -6.3 °C 14.6 °F /  -9.7 °C 30.03in /  1016.8hPa SSW 5.0mph /  8km/h 11.0mph /  17.7km/h 77% 0.00in /  0mm
20:14 20.8 °F /  -6.2 °C 14.4 °F /  -9.8 °C 30.03in /  1016.8hPa SSW 5.0mph /  8km/h 11.0mph /  17.7km/h 76% 0.00in /  0mm
20:19 20.8 °F /  -6.2 °C 14.1 °F /  -9.9 °C 30.03in /  1016.8hPa SSW 5.0mph /  8km/h 12.0mph /  19.3km/h 75% 0.00in /  0mm
20:24 20.8 °F /  -6.2 °C 14.1 °F /  -9.9 °C 30.02in /  1016.5hPa SW 5.0mph /  8km/h 8.0mph /  12.9km/h 75% 0.00in /  0mm
20:29 20.9 °F /  -6.2 °C 13.9 °F /  -10.1 °C 30.02in /  1016.5hPa SSW 2.0mph /  3.2km/h 7.0mph /  11.3km/h 74% 0.00in /  0mm
20:34 20.9 °F /  -6.2 °C 13.9 °F /  -10.1 °C 30.02in /  1016.5hPa SW 5.0mph /  8km/h 7.0mph /  11.3km/h 74% 0.00in /  0mm
20:39 21.2 °F /  -6 °C 14.2 °F /  -9.9 °C 30.01in /  1016.1hPa SSW 4.0mph /  6.4km/h 8.0mph /  12.9km/h 74% 0.00in /  0mm
20:44 21.3 °F /  -5.9 °C 14.3 °F /  -9.8 °C 30.02in /  1016.5hPa SSW 5.0mph /  8km/h 11.0mph /  17.7km/h 74% 0.00in /  0mm
20:49 21.5 °F /  -5.8 °C 14.2 °F /  -9.9 °C 30.02in /  1016.5hPa SSW 3.0mph /  4.8km/h 9.0mph /  14.5km/h 73% 0.00in /  0mm
20:54 21.6 °F /  -5.8 °C 14.3 °F /  -9.8 °C 30.02in /  1016.5hPa SW 5.0mph /  8km/h 11.0mph /  17.7km/h 73% 0.00in /  0mm
20:59 21.8 °F /  -5.7 °C 14.5 °F /  -9.7 °C 30.01in /  1016.1hPa SW 3.0mph /  4.8km/h 11.0mph /  17.7km/h 73% 0.00in /  0mm
21:04 21.9 °F /  -5.6 °C 14.3 °F /  -9.8 °C 30.00in /  1015.8hPa SSW 3.0mph /  4.8km/h 10.0mph /  16.1km/h 72% 0.00in /  0mm
21:09 22.1 °F /  -5.5 °C 14.4 °F /  -9.8 °C 30.00in /  1015.8hPa SW 5.0mph /  8km/h 15.0mph /  24.1km/h 72% 0.00in /  0mm
21:14 22.3 °F /  -5.4 °C 14.6 °F /  -9.7 °C 30.00in /  1015.8hPa SW 6.0mph /  9.7km/h 15.0mph /  24.1km/h 72% 0.00in /  0mm
21:19 22.5 °F /  -5.3 °C 14.8 °F /  -9.6 °C 30.00in /  1015.8hPa SW 6.0mph /  9.7km/h 12.0mph /  19.3km/h 72% 0.00in /  0mm
21:24 22.7 °F /  -5.2 °C 15.0 °F /  -9.4 °C 30.00in /  1015.8hPa SW 7.0mph /  11.3km/h 13.0mph /  20.9km/h 72% 0.00in /  0mm
21:29 23.1 °F /  -4.9 °C 15.1 °F /  -9.4 °C 30.00in /  1015.8hPa SW 7.0mph /  11.3km/h 13.0mph /  20.9km/h 71% 0.00in /  0mm
21:34 23.3 °F /  -4.8 °C 15.3 °F /  -9.3 °C 30.00in /  1015.8hPa SW 6.0mph /  9.7km/h 12.0mph /  19.3km/h 71% 0.00in /  0mm
21:39 23.5 °F /  -4.7 °C 15.1 °F /  -9.4 °C 29.99in /  1015.5hPa SSW 11.0mph /  17.7km/h 13.0mph /  20.9km/h 70% 0.00in /  0mm
21:44 23.7 °F /  -4.6 °C 15.3 °F /  -9.3 °C 30.00in /  1015.8hPa SW 7.0mph /  11.3km/h 16.0mph /  25.7km/h 70% 0.00in /  0mm
21:49 23.9 °F /  -4.5 °C 15.5 °F /  -9.2 °C 30.00in /  1015.8hPa SW 5.0mph /  8km/h 14.0mph /  22.5km/h 70% 0.00in /  0mm
21:54 24.2 °F /  -4.3 °C 15.8 °F /  -9 °C 30.00in /  1015.8hPa SW 9.0mph /  14.5km/h 15.0mph /  24.1km/h 70% 0.00in /  0mm
21:59 24.4 °F /  -4.2 °C 16.0 °F /  -8.9 °C 30.00in /  1015.8hPa SW 4.0mph /  6.4km/h 16.0mph /  25.7km/h 70% 0.00in /  0mm
22:04 24.7 °F /  -4.1 °C 16.3 °F /  -8.7 °C 30.00in /  1015.8hPa SSW 7.0mph /  11.3km/h 14.0mph /  22.5km/h 70% 0.00in /  0mm
22:09 24.9 °F /  -3.9 °C 16.2 °F /  -8.8 °C 30.00in /  1015.8hPa SW 5.0mph /  8km/h 18.0mph /  29km/h 69% 0.00in /  0mm
22:14 25.0 °F /  -3.9 °C 16.3 °F /  -8.7 °C 29.99in /  1015.5hPa SSW 8.0mph /  12.9km/h 13.0mph /  20.9km/h 69% 0.00in /  0mm
22:19 25.2 °F /  -3.8 °C 16.5 °F /  -8.6 °C 29.99in /  1015.5hPa SSW 7.0mph /  11.3km/h 18.0mph /  29km/h 69% 0.00in /  0mm
22:24 25.3 °F /  -3.7 °C 16.5 °F /  -8.6 °C 29.99in /  1015.5hPa SSW 6.0mph /  9.7km/h 18.0mph /  29km/h 69% 0.00in /  0mm
22:29 25.4 °F /  -3.7 °C 16.6 °F /  -8.6 °C 29.99in /  1015.5hPa SSW 6.0mph /  9.7km/h 17.0mph /  27.4km/h 69% 0.00in /  0mm
22:34 25.5 °F /  -3.6 °C 16.4 °F /  -8.7 °C 29.99in /  1015.5hPa SSW 6.0mph /  9.7km/h 13.0mph /  20.9km/h 68% 0.00in /  0mm
22:39 25.6 °F /  -3.6 °C 16.8 °F /  -8.4 °C 29.99in /  1015.5hPa SW 6.0mph /  9.7km/h 13.0mph /  20.9km/h 69% 0.00in /  0mm
22:44 25.8 °F /  -3.4 °C 16.7 °F /  -8.5 °C 29.99in /  1015.5hPa WSW 15.0mph /  24.1km/h 15.0mph /  24.1km/h 68% 0.00in /  0mm
22:49 25.9 °F /  -3.4 °C 16.8 °F /  -8.4 °C 29.99in /  1015.5hPa SSW 7.0mph /  11.3km/h 14.0mph /  22.5km/h 68% 0.00in /  0mm
22:54 26.1 °F /  -3.3 °C 17.0 °F /  -8.3 °C 29.99in /  1015.5hPa SW 8.0mph /  12.9km/h 16.0mph /  25.7km/h 68% 0.00in /  0mm
22:59 26.1 °F /  -3.3 °C 17.0 °F /  -8.3 °C 29.99in /  1015.5hPa SW 14.0mph /  22.5km/h 17.0mph /  27.4km/h 68% 0.00in /  0mm
23:04 26.2 °F /  -3.2 °C 17.1 °F /  -8.3 °C 29.99in /  1015.5hPa SSW 2.0mph /  3.2km/h 19.0mph /  30.6km/h 68% 0.00in /  0mm
23:09 26.2 °F /  -3.2 °C 16.7 °F /  -8.5 °C 29.99in /  1015.5hPa West 5.0mph /  8km/h 13.0mph /  20.9km/h 67% 0.00in /  0mm
23:14 26.1 °F /  -3.3 °C 16.6 °F /  -8.6 °C 29.99in /  1015.5hPa SW 8.0mph /  12.9km/h 11.0mph /  17.7km/h 67% 0.00in /  0mm
23:19 26.1 °F /  -3.3 °C 16.6 °F /  -8.6 °C 29.99in /  1015.5hPa South 5.0mph /  8km/h 11.0mph /  17.7km/h 67% 0.00in /  0mm
23:24 26.1 °F /  -3.3 °C 16.6 °F /  -8.6 °C 29.99in /  1015.5hPa SW 7.0mph /  11.3km/h 12.0mph /  19.3km/h 67% 0.00in /  0mm
23:29 26.1 °F /  -3.3 °C 16.6 °F /  -8.6 °C 30.00in /  1015.8hPa SW 7.0mph /  11.3km/h 12.0mph /  19.3km/h 67% 0.00in /  0mm
23:34 26.1 °F /  -3.3 °C 16.6 °F /  -8.6 °C 30.00in /  1015.8hPa SW 7.0mph /  11.3km/h 13.0mph /  20.9km/h 67% 0.00in /  0mm
23:39 26.3 °F /  -3.2 °C 16.8 °F /  -8.4 °C 30.00in /  1015.8hPa SW 8.0mph /  12.9km/h 15.0mph /  24.1km/h 67% 0.00in /  0mm
23:44 26.3 °F /  -3.2 °C 16.8 °F /  -8.4 °C 30.00in /  1015.8hPa WSW 7.0mph /  11.3km/h 13.0mph /  20.9km/h 67% 0.00in /  0mm
23:49 26.2 °F /  -3.2 °C 16.7 °F /  -8.5 °C 30.00in /  1015.8hPa SSW 5.0mph /  8km/h 13.0mph /  20.9km/h 67% 0.00in /  0mm
23:54 26.1 °F /  -3.3 °C 16.6 °F /  -8.6 °C 30.00in /  1015.8hPa SW 7.0mph /  11.3km/h 13.0mph /  20.9km/h 67% 0.00in /  0mm
23:59 26.0 °F /  -3.3 °C 16.5 °F /  -8.6 °C 29.99in /  1015.5hPa SW 7.0mph /  11.3km/h 13.0mph /  20.9km/h 67% 0.00in /  0mm
Buffalo, New York, USA
Compliments of Weather Underground - 2.5 mb